createdAt,value
2023-03-22T00:00:19.794Z,91.20
2023-03-22T00:02:50.313Z,91.10
2023-03-22T00:05:19.382Z,91.10
2023-03-22T00:07:50.325Z,91.00
2023-03-22T00:10:19.890Z,91.00
2023-03-22T00:12:48.893Z,90.90
2023-03-22T00:15:18.210Z,90.90
2023-03-22T00:17:47.839Z,90.90
2023-03-22T00:20:20.872Z,90.90
2023-03-22T00:22:49.943Z,90.80
2023-03-22T00:25:19.816Z,90.80
2023-03-22T00:27:48.969Z,90.70
2023-03-22T00:30:18.490Z,90.70
2023-03-22T00:32:47.657Z,90.70
2023-03-22T00:35:18.247Z,90.60
2023-03-22T00:37:51.613Z,90.50
2023-03-22T00:40:20.784Z,90.50
2023-03-22T00:42:49.850Z,90.40
2023-03-22T00:45:19.087Z,90.40
2023-03-22T00:47:48.510Z,90.40
2023-03-22T00:50:19.102Z,90.40
2023-03-22T00:52:48.442Z,90.40
2023-03-22T00:55:17.624Z,90.80
2023-03-22T00:57:47.800Z,90.40
2023-03-22T01:00:17.621Z,90.30
2023-03-22T01:02:47.560Z,90.30
2023-03-22T01:05:22.612Z,90.20
2023-03-22T01:07:51.870Z,90.10
2023-03-22T01:10:21.085Z,90.00
2023-03-22T01:12:50.111Z,89.50
2023-03-22T01:15:22.569Z,89.10
2023-03-22T01:17:53.530Z,88.70
2023-03-22T01:20:24.747Z,88.30
2023-03-22T01:22:53.844Z,87.90
2023-03-22T01:25:22.929Z,87.30
2023-03-22T01:27:52.012Z,86.50
2023-03-22T01:30:21.245Z,85.90
2023-03-22T01:32:50.489Z,85.10
2023-03-22T01:35:20.373Z,84.50
2023-03-22T01:37:50.987Z,84.00
2023-03-22T01:40:21.785Z,83.40
2023-03-22T01:42:50.850Z,83.20
2023-03-22T01:45:41.960Z,82.90
2023-03-22T01:48:19.939Z,82.70
2023-03-22T01:50:57.504Z,82.70
2023-03-22T01:53:34.276Z,82.50
2023-03-22T01:56:04.635Z,82.30
2023-03-22T01:58:37.386Z,82.20
2023-03-22T02:01:11.073Z,81.80
2023-03-22T02:03:56.606Z,81.00
2023-03-22T02:06:29.992Z,80.00
2023-03-22T02:09:22.281Z,79.30
2023-03-22T02:12:07.697Z,78.50
2023-03-22T02:14:57.873Z,77.60
2023-03-22T02:18:06.521Z,77.10
2023-03-22T02:21:18.367Z,76.40
2023-03-22T02:24:14.863Z,75.80
2023-03-22T02:27:16.042Z,75.60
2023-03-22T02:29:48.344Z,75.40
2023-03-22T02:32:39.062Z,75.30
2023-03-22T02:35:38.481Z,75.00
2023-03-22T02:38:25.971Z,74.90
2023-03-22T02:41:06.349Z,75.00
2023-03-22T02:43:39.425Z,75.00
2023-03-22T02:46:12.428Z,75.30
2023-03-22T02:48:49.532Z,75.40
2023-03-22T02:51:23.092Z,75.20
2023-03-22T02:53:57.641Z,75.10
2023-03-22T02:56:32.833Z,74.90
2023-03-22T02:59:06.387Z,74.60
2023-03-22T03:01:40.544Z,74.60
2023-03-22T03:04:17.976Z,74.50
2023-03-22T03:06:50.524Z,74.70
2023-03-22T03:09:21.831Z,74.70
2023-03-22T03:11:53.544Z,74.70
2023-03-22T03:14:26.068Z,74.70
2023-03-22T03:17:14.356Z,74.90
2023-03-22T03:19:53.542Z,74.60
2023-03-22T03:22:38.391Z,74.60
2023-03-22T03:25:15.320Z,74.70
2023-03-22T03:27:49.887Z,74.60
2023-03-22T03:30:27.247Z,74.50
2023-03-22T03:32:59.479Z,74.50
2023-03-22T03:35:37.706Z,74.50
2023-03-22T03:38:10.828Z,74.40
2023-03-22T03:40:42.862Z,74.30
2023-03-22T03:43:14.784Z,74.30
2023-03-22T03:45:44.064Z,74.20
2023-03-22T03:48:19.503Z,74.10
2023-03-22T03:50:51.050Z,73.90
2023-03-22T03:53:20.854Z,73.70
2023-03-22T03:55:50.122Z,73.50
2023-03-22T03:58:20.976Z,73.60
2023-03-22T04:00:51.094Z,73.50
2023-03-22T04:03:42.576Z,73.40
2023-03-22T04:06:14.437Z,73.40
2023-03-22T04:08:53.875Z,73.20
2023-03-22T04:11:27.117Z,73.10
2023-03-22T04:14:01.961Z,73.10
2023-03-22T04:16:31.618Z,73.00
2023-03-22T04:19:00.816Z,73.20
2023-03-22T04:21:29.994Z,73.10
2023-03-22T04:24:00.848Z,73.10
2023-03-22T04:26:33.897Z,73.20
2023-03-22T04:29:27.218Z,73.20
2023-03-22T04:32:01.508Z,73.20
2023-03-22T04:34:37.725Z,73.20
2023-03-22T04:37:12.242Z,73.20
2023-03-22T04:39:51.246Z,73.20
2023-03-22T04:42:39.365Z,73.10
2023-03-22T04:45:15.924Z,73.20
2023-03-22T04:47:49.106Z,73.20
2023-03-22T04:50:18.412Z,73.20
2023-03-22T04:52:55.033Z,73.20
2023-03-22T04:55:24.131Z,73.30
2023-03-22T04:57:55.445Z,73.30
2023-03-22T05:00:30.462Z,73.30
2023-03-22T05:03:02.000Z,73.30
2023-03-22T05:05:52.753Z,73.40
2023-03-22T05:08:24.961Z,73.40
2023-03-22T05:10:55.460Z,73.60
2023-03-22T05:13:27.314Z,73.70
2023-03-22T05:15:59.920Z,73.70
2023-03-22T05:18:42.553Z,73.70
2023-03-22T05:21:15.481Z,73.90
2023-03-22T05:23:46.261Z,74.00
2023-03-22T05:26:16.022Z,74.10
2023-03-22T05:28:46.072Z,74.10
2023-03-22T05:31:34.652Z,74.10
2023-03-22T05:34:05.373Z,74.30
2023-03-22T05:36:37.671Z,74.40
2023-03-22T05:39:22.971Z,74.40
2023-03-22T05:41:52.907Z,74.40
2023-03-22T05:44:22.070Z,74.20
2023-03-22T05:47:01.784Z,74.20
2023-03-22T05:49:47.024Z,74.10
2023-03-22T05:52:16.775Z,74.00
2023-03-22T05:54:53.189Z,74.00
2023-03-22T05:57:22.250Z,73.80
2023-03-22T05:59:53.939Z,73.70
2023-03-22T06:02:29.882Z,73.70
2023-03-22T06:05:00.091Z,73.70
2023-03-22T06:07:29.205Z,73.60
2023-03-22T06:10:04.126Z,73.50
2023-03-22T06:12:34.187Z,73.40
2023-03-22T06:15:13.464Z,73.40
2023-03-22T06:18:02.337Z,73.30
2023-03-22T06:20:35.545Z,73.20
2023-03-22T06:23:11.313Z,73.10
2023-03-22T06:25:41.969Z,73.00
2023-03-22T06:28:11.390Z,73.00
2023-03-22T06:30:43.473Z,72.90
2023-03-22T06:33:28.693Z,72.90
2023-03-22T06:36:03.216Z,72.80
2023-03-22T06:38:41.163Z,72.80
2023-03-22T06:41:10.424Z,72.70
2023-03-22T06:43:39.427Z,72.60
2023-03-22T06:46:21.939Z,72.60
2023-03-22T06:49:01.122Z,72.60
2023-03-22T06:51:30.319Z,72.50
2023-03-22T06:53:59.749Z,72.40
2023-03-22T06:56:29.099Z,72.50
2023-03-22T06:58:58.493Z,72.50
2023-03-22T07:01:27.633Z,72.70
2023-03-22T07:03:56.736Z,72.70
2023-03-22T07:06:27.386Z,72.90
2023-03-22T07:08:57.161Z,73.00
2023-03-22T07:11:30.804Z,73.20
2023-03-22T07:14:04.712Z,73.10
2023-03-22T07:17:14.177Z,73.00
2023-03-22T07:19:43.431Z,73.00
2023-03-22T07:22:15.640Z,73.00
2023-03-22T07:24:56.162Z,72.90
2023-03-22T07:27:30.933Z,72.80
2023-03-22T07:30:00.693Z,72.70
2023-03-22T07:32:30.704Z,72.40
2023-03-22T07:35:12.475Z,72.10
2023-03-22T07:37:44.242Z,71.90
2023-03-22T07:40:21.588Z,71.50
2023-03-22T07:42:51.456Z,71.20
2023-03-22T07:45:36.875Z,70.80
2023-03-22T07:48:34.892Z,70.60
2023-03-22T07:51:23.844Z,70.30
2023-03-22T07:53:54.356Z,70.10
2023-03-22T07:56:23.490Z,70.00
2023-03-22T07:58:52.584Z,69.90
2023-03-22T08:01:24.870Z,69.50
2023-03-22T08:04:21.052Z,69.50
2023-03-22T08:06:58.724Z,69.50
2023-03-22T08:09:30.602Z,69.10
2023-03-22T08:11:59.763Z,69.00
2023-03-22T08:14:36.177Z,68.90
2023-03-22T08:17:08.404Z,68.80
2023-03-22T08:19:37.550Z,68.70
2023-03-22T08:22:09.366Z,68.50
2023-03-22T08:24:59.741Z,68.40
2023-03-22T08:27:33.078Z,68.20
2023-03-22T08:30:05.853Z,67.90
2023-03-22T08:32:35.820Z,67.70
2023-03-22T08:35:06.458Z,67.80
2023-03-22T08:37:35.828Z,67.70
2023-03-22T08:40:10.588Z,67.70
2023-03-22T08:43:01.944Z,67.60
2023-03-22T08:45:32.247Z,67.50
2023-03-22T08:48:09.812Z,67.30
2023-03-22T08:51:01.137Z,67.30
2023-03-22T08:53:39.487Z,67.10
2023-03-22T08:56:38.279Z,66.90
2023-03-22T08:59:33.452Z,66.40
2023-03-22T09:02:26.172Z,66.30
2023-03-22T09:04:55.857Z,66.20
2023-03-22T09:07:25.452Z,65.70
2023-03-22T09:10:13.012Z,65.30
2023-03-22T09:12:48.095Z,65.00
2023-03-22T09:15:17.373Z,65.00
2023-03-22T09:17:51.238Z,64.90
2023-03-22T09:20:25.275Z,64.70
2023-03-22T09:22:54.702Z,64.50
2023-03-22T09:25:24.649Z,64.50
2023-03-22T09:27:55.687Z,64.40
2023-03-22T09:30:24.947Z,64.20
2023-03-22T09:32:53.922Z,64.10
2023-03-22T09:35:23.186Z,64.10
2023-03-22T09:37:59.001Z,64.10
2023-03-22T09:40:31.650Z,64.10
2023-03-22T09:43:05.806Z,64.20
2023-03-22T09:45:39.815Z,64.40
2023-03-22T09:48:15.847Z,64.70
2023-03-22T09:50:48.085Z,65.00
2023-03-22T09:53:18.411Z,65.00
2023-03-22T09:55:53.858Z,64.40
2023-03-22T09:58:29.364Z,64.00
2023-03-22T10:01:01.687Z,63.70
2023-03-22T10:03:59.338Z,63.30
2023-03-22T10:06:30.696Z,63.20
2023-03-22T10:09:04.737Z,63.40
2023-03-22T10:11:45.816Z,63.30
2023-03-22T10:14:25.170Z,63.40
2023-03-22T10:16:57.286Z,63.50
2023-03-22T10:19:32.458Z,63.80
2023-03-22T10:22:03.446Z,63.50
2023-03-22T10:24:36.905Z,63.40
2023-03-22T10:27:15.516Z,64.50
2023-03-22T10:29:49.673Z,63.60
2023-03-22T10:32:20.315Z,63.40
2023-03-22T10:34:49.500Z,63.30
2023-03-22T10:37:21.722Z,64.40
2023-03-22T10:39:54.233Z,63.50
2023-03-22T10:42:28.121Z,63.30
2023-03-22T10:45:02.485Z,63.40
2023-03-22T10:47:35.316Z,63.60
2023-03-22T10:50:07.486Z,64.00
2023-03-22T10:52:43.849Z,64.30
2023-03-22T10:55:15.894Z,64.10
2023-03-22T10:57:52.671Z,64.10
2023-03-22T11:00:24.494Z,64.20
2023-03-22T11:02:59.460Z,64.50
2023-03-22T11:05:30.906Z,64.70
2023-03-22T11:07:59.878Z,65.00
2023-03-22T11:10:32.745Z,65.30
2023-03-22T11:13:21.651Z,65.40
2023-03-22T11:15:55.694Z,65.40
2023-03-22T11:18:26.253Z,65.40
2023-03-22T11:20:59.157Z,65.20
2023-03-22T11:23:29.953Z,64.70
2023-03-22T11:26:11.318Z,64.30
2023-03-22T11:28:47.517Z,63.70
2023-03-22T11:31:19.682Z,63.40
2023-03-22T11:33:57.280Z,63.20
2023-03-22T11:36:27.498Z,63.00
2023-03-22T11:39:01.786Z,63.00
2023-03-22T11:41:33.135Z,62.40
2023-03-22T11:44:02.857Z,62.40
2023-03-22T11:46:34.593Z,62.40
2023-03-22T11:49:09.186Z,62.60
2023-03-22T11:51:40.980Z,62.40
2023-03-22T11:54:16.843Z,62.20
2023-03-22T11:56:49.306Z,62.20
2023-03-22T11:59:24.357Z,62.50
2023-03-22T12:02:04.318Z,62.70
2023-03-22T12:04:39.329Z,63.10
2023-03-22T12:07:15.604Z,63.20
2023-03-22T12:09:49.910Z,63.30
2023-03-22T12:12:23.152Z,63.50
2023-03-22T12:14:57.180Z,63.60
2023-03-22T12:17:33.549Z,63.30
2023-03-22T12:20:09.045Z,63.10
2023-03-22T12:22:43.345Z,62.80
2023-03-22T12:25:17.104Z,62.10
2023-03-22T12:27:49.525Z,61.60
2023-03-22T12:30:21.848Z,60.90
2023-03-22T12:32:54.996Z,60.60
2023-03-22T12:35:28.490Z,60.30
2023-03-22T12:38:00.617Z,60.30
2023-03-22T12:40:33.482Z,60.30
2023-03-22T12:43:10.548Z,60.30
2023-03-22T12:45:42.508Z,59.90
2023-03-22T12:48:19.078Z,59.60
2023-03-22T12:50:52.307Z,59.40
2023-03-22T12:53:23.534Z,59.30
2023-03-22T12:55:52.977Z,59.40
2023-03-22T12:58:24.540Z,59.60
2023-03-22T13:00:58.197Z,59.60
2023-03-22T13:03:40.343Z,59.60
2023-03-22T13:06:31.222Z,59.60
2023-03-22T13:09:15.912Z,59.80
2023-03-22T13:11:46.690Z,60.10
2023-03-22T13:14:53.235Z,60.30
2023-03-22T13:17:39.639Z,60.20
2023-03-22T13:20:29.225Z,60.50
2023-03-22T13:23:04.616Z,60.70
2023-03-22T13:25:36.724Z,61.10
2023-03-22T13:28:24.720Z,61.20
2023-03-22T13:30:56.234Z,60.90
2023-03-22T13:33:28.371Z,60.60
2023-03-22T13:36:01.402Z,60.00
2023-03-22T13:38:34.239Z,59.90
2023-03-22T13:41:05.898Z,59.80
2023-03-22T13:43:37.785Z,59.70
2023-03-22T13:46:28.081Z,59.60
2023-03-22T13:49:20.679Z,59.40
2023-03-22T13:51:52.117Z,59.40
2023-03-22T13:54:24.078Z,59.60
2023-03-22T13:56:57.137Z,59.60
2023-03-22T13:59:31.348Z,59.60
2023-03-22T14:02:04.932Z,59.30
2023-03-22T14:04:40.843Z,59.30
2023-03-22T14:07:22.639Z,59.30
2023-03-22T14:09:53.911Z,59.20
2023-03-22T14:12:26.812Z,59.40
2023-03-22T14:14:59.289Z,59.30
2023-03-22T14:17:36.750Z,59.10
2023-03-22T14:20:10.501Z,59.00
